Time;durP1;ratioP1;P1;durP2;ratioP2;P2;SDS_P1;SDS_P2;PMS_P1;PMS_P2;Temp;Humidity;BMP_temperature;BMP_pressure;BME280_temperature;BME280_humidity;BME280_pressure;Samples;Min_cycle;Max_cycle;Signal;HPM_P1;HPM_P2
2023/07/19 00:01:05;;;;;;;10.63;4.20;;;22.10;99.90;;;;;;5002077;28;20055;-80
2023/07/19 00:03:33;;;;;;;9.35;4.13;;;22.20;99.90;;;;;;5001317;28;20037;-80
2023/07/19 00:06:02;;;;;;;8.18;4.82;;;22.30;99.90;;;;;;5001560;28;20129;-81
2023/07/19 00:08:29;;;;;;;7.15;4.32;;;22.20;99.90;;;;;;5001506;28;20630;-80
2023/07/19 00:10:56;;;;;;;8.00;4.03;;;22.20;99.90;;;;;;4999437;28;20556;-81
2023/07/19 00:13:24;;;;;;;11.40;4.10;;;22.20;99.90;;;;;;5002067;28;20126;-80
2023/07/19 00:15:52;;;;;;;6.75;4.30;;;22.10;99.90;;;;;;5000425;28;20046;-80
2023/07/19 00:18:19;;;;;;;8.52;3.70;;;22.00;99.90;;;;;;5001460;28;20744;-80
2023/07/19 00:20:47;;;;;;;11.23;4.45;;;21.90;99.90;;;;;;4999557;28;20054;-80
2023/07/19 00:23:15;;;;;;;9.32;4.60;;;21.80;99.90;;;;;;5000040;28;20042;-80
2023/07/19 00:25:42;;;;;;;9.82;5.47;;;21.60;99.90;;;;;;5000231;28;20101;-79
2023/07/19 00:28:10;;;;;;;9.65;4.97;;;21.50;99.90;;;;;;5000928;28;20069;-79
2023/07/19 00:30:37;;;;;;;7.68;4.68;;;21.40;99.90;;;;;;4999980;28;20051;-79
2023/07/19 00:33:05;;;;;;;8.02;4.60;;;21.40;99.90;;;;;;4998152;28;20145;-79
2023/07/19 00:35:34;;;;;;;8.30;4.72;;;21.40;99.90;;;;;;4999732;28;20054;-79
2023/07/19 00:38:03;;;;;;;10.18;4.40;;;21.30;99.90;;;;;;4999785;28;20104;-79
2023/07/19 00:40:33;;;;;;;12.45;4.80;;;21.30;99.90;;;;;;4999775;28;20397;-79
2023/07/19 00:43:00;;;;;;;8.35;5.07;;;21.30;99.90;;;;;;4998314;28;20108;-78
2023/07/19 00:45:28;;;;;;;9.88;5.15;;;21.30;99.90;;;;;;4998788;28;20092;-78
2023/07/19 00:47:57;;;;;;;11.10;5.63;;;21.40;99.90;;;;;;4997102;28;20045;-78
2023/07/19 00:50:25;;;;;;;12.73;5.00;;;21.40;99.90;;;;;;4998364;28;20446;-78
2023/07/19 00:52:53;;;;;;;12.82;5.43;;;21.30;99.90;;;;;;4998631;28;20112;-79
2023/07/19 00:55:22;;;;;;;9.88;4.93;;;21.30;99.90;;;;;;5000071;28;20092;-78
2023/07/19 00:57:49;;;;;;;7.55;5.00;;;21.30;99.90;;;;;;4998955;28;20452;-78
2023/07/19 01:00:17;;;;;;;12.40;5.00;;;21.20;99.90;;;;;;4997961;28;20330;-79
2023/07/19 01:02:45;;;;;;;12.95;5.15;;;21.20;99.90;;;;;;4998814;28;20046;-79
2023/07/19 01:05:13;;;;;;;10.20;5.00;;;21.20;99.90;;;;;;4999593;28;20053;-78
2023/07/19 01:07:40;;;;;;;6.80;4.82;;;21.20;99.90;;;;;;4999252;28;20046;-79
2023/07/19 01:10:09;;;;;;;11.77;5.22;;;21.20;99.90;;;;;;4955168;28;1215281;-79
2023/07/19 01:12:38;;;;;;;7.93;5.00;;;21.10;99.90;;;;;;5001179;28;20045;-78
2023/07/19 01:15:09;;;;;;;9.88;5.25;;;21.00;99.90;;;;;;5000282;28;20096;-78
2023/07/19 01:17:37;;;;;;;6.97;4.93;;;21.00;99.90;;;;;;4999270;28;20660;-79
2023/07/19 01:20:06;;;;;;;11.05;5.53;;;21.00;99.90;;;;;;4999363;28;20486;-78
2023/07/19 01:22:34;;;;;;;9.20;5.63;;;21.00;99.90;;;;;;5000486;28;20041;-78
2023/07/19 01:25:02;;;;;;;10.02;5.15;;;21.10;99.90;;;;;;4998601;28;20050;-78
2023/07/19 01:27:30;;;;;;;10.00;5.93;;;21.00;99.90;;;;;;4998685;28;20504;-78
2023/07/19 01:29:58;;;;;;;7.85;5.60;;;20.90;99.90;;;;;;4998957;28;20038;-78
2023/07/19 01:32:25;;;;;;;9.25;6.97;;;20.90;99.90;;;;;;5000070;28;20038;-78
2023/07/19 01:34:52;;;;;;;10.18;6.65;;;20.80;99.90;;;;;;4999399;28;20092;-78
2023/07/19 01:37:20;;;;;;;9.48;6.50;;;20.80;99.90;;;;;;4999786;28;20037;-77
2023/07/19 01:39:50;;;;;;;9.45;7.65;;;20.70;99.90;;;;;;4998864;28;20097;-78
2023/07/19 01:42:18;;;;;;;13.38;8.98;;;20.70;99.90;;;;;;4999963;28;20046;-78
2023/07/19 01:44:45;;;;;;;9.27;6.75;;;20.60;99.90;;;;;;4998731;28;20064;-78
2023/07/19 01:47:13;;;;;;;10.93;7.10;;;20.50;99.90;;;;;;4997801;28;20077;-78
2023/07/19 01:49:41;;;;;;;12.00;7.25;;;20.60;99.90;;;;;;4997877;28;20042;-78
2023/07/19 01:52:09;;;;;;;11.90;6.95;;;20.50;99.90;;;;;;4999379;28;20042;-78
2023/07/19 01:54:36;;;;;;;9.38;6.88;;;20.50;99.90;;;;;;4999500;28;20482;-79
2023/07/19 01:57:05;;;;;;;11.68;6.65;;;20.40;99.90;;;;;;4997769;28;20045;-78
2023/07/19 01:59:32;;;;;;;12.48;7.40;;;20.40;99.90;;;;;;4995262;28;20046;-79
2023/07/19 02:02:00;;;;;;;12.98;7.10;;;20.40;99.90;;;;;;4998925;28;20046;-78
2023/07/19 02:04:28;;;;;;;12.35;7.13;;;20.50;99.90;;;;;;4998615;28;20046;-78
2023/07/19 02:06:56;;;;;;;9.80;7.05;;;20.40;99.90;;;;;;4999094;28;20046;-78
2023/07/19 02:09:24;;;;;;;11.05;7.13;;;20.30;99.90;;;;;;4998645;28;20149;-78
2023/07/19 02:11:51;;;;;;;14.80;6.90;;;20.20;99.90;;;;;;5002115;28;20038;-78
2023/07/19 02:14:21;;;;;;;10.10;7.53;;;20.20;99.90;;;;;;5020019;28;20057;-79
2023/07/19 02:16:48;;;;;;;10.15;7.28;;;20.10;99.90;;;;;;5014764;28;20058;-79
2023/07/19 02:19:15;;;;;;;10.80;7.65;;;20.10;99.90;;;;;;5000638;28;20046;-79
2023/07/19 02:21:43;;;;;;;12.07;8.02;;;20.00;99.90;;;;;;4998457;28;20046;-78
2023/07/19 02:24:10;;;;;;;8.52;6.78;;;19.90;99.90;;;;;;5000055;28;20038;-79
2023/07/19 02:26:38;;;;;;;10.48;6.07;;;19.90;99.90;;;;;;4998666;28;20046;-78
2023/07/19 02:29:06;;;;;;;8.98;6.70;;;19.80;99.90;;;;;;4998032;28;20050;-80
2023/07/19 02:31:35;;;;;;;12.93;7.15;;;19.70;99.90;;;;;;5013891;22;20050;-75
2023/07/19 02:34:05;;;;;;;10.50;6.85;;;19.70;99.90;;;;;;5007433;28;20054;-78
2023/07/19 02:36:34;;;;;;;13.95;8.30;;;19.70;99.90;;;;;;5001785;28;20038;-76
2023/07/19 02:39:03;;;;;;;10.30;7.45;;;19.70;99.90;;;;;;4998471;28;20042;-77
2023/07/19 02:41:30;;;;;;;10.32;8.63;;;19.70;99.90;;;;;;4999833;28;20584;-75
2023/07/19 02:43:58;;;;;;;10.63;8.13;;;19.70;99.90;;;;;;5003829;28;20045;-79
2023/07/19 02:46:25;;;;;;;10.80;7.72;;;19.70;99.90;;;;;;5003872;28;20058;-76
2023/07/19 02:48:54;;;;;;;12.88;7.72;;;19.70;99.90;;;;;;5003542;28;20042;-77
2023/07/19 02:51:21;;;;;;;8.90;8.00;;;19.70;99.90;;;;;;5000782;28;20051;-76
2023/07/19 02:53:50;;;;;;;11.05;8.30;;;19.70;99.90;;;;;;5003455;28;20439;-75
2023/07/19 02:56:17;;;;;;;10.80;8.43;;;19.70;99.90;;;;;;4997850;28;20413;-77
2023/07/19 02:58:45;;;;;;;10.57;8.63;;;19.70;99.90;;;;;;5002685;28;20073;-77
2023/07/19 03:01:14;;;;;;;12.38;8.82;;;19.60;99.90;;;;;;5009247;28;20069;-78
2023/07/19 03:03:42;;;;;;;13.77;9.48;;;19.60;99.90;;;;;;5006646;28;20050;-77
2023/07/19 03:06:12;;;;;;;10.93;8.55;;;19.50;99.90;;;;;;5005840;28;20112;-75
2023/07/19 03:08:39;;;;;;;11.65;9.27;;;19.40;99.90;;;;;;5003364;28;20058;-76
2023/07/19 03:11:08;;;;;;;11.70;9.13;;;19.40;99.90;;;;;;5001109;28;20118;-78
2023/07/19 03:13:36;;;;;;;14.95;8.60;;;19.40;99.90;;;;;;5006480;28;20057;-76
2023/07/19 03:16:05;;;;;;;11.13;8.00;;;19.40;99.90;;;;;;5011387;28;20077;-74
2023/07/19 03:18:33;;;;;;;10.63;7.38;;;19.40;99.90;;;;;;5021163;28;20057;-76
2023/07/19 03:21:02;;;;;;;11.60;8.07;;;19.40;99.90;;;;;;5008214;28;20054;-76
2023/07/19 03:23:31;;;;;;;10.77;8.07;;;19.30;99.90;;;;;;5006598;28;20277;-77
2023/07/19 03:25:58;;;;;;;15.95;9.43;;;19.30;99.90;;;;;;5002829;28;20046;-77
2023/07/19 03:28:28;;;;;;;12.43;7.97;;;19.30;99.90;;;;;;5001234;28;20046;-78
2023/07/19 03:30:57;;;;;;;11.63;9.25;;;19.20;99.90;;;;;;5001705;28;20137;-79
2023/07/19 03:33:26;;;;;;;11.13;9.30;;;19.20;99.90;;;;;;5001530;28;20081;-76
2023/07/19 03:35:54;;;;;;;11.00;8.27;;;19.30;99.90;;;;;;5002078;28;20060;-76
2023/07/19 03:38:22;;;;;;;13.63;9.45;;;19.20;99.90;;;;;;5002743;28;20046;-78
2023/07/19 03:40:54;;;;;;;13.57;9.48;;;19.20;99.90;;;;;;5001557;28;20074;-79
2023/07/19 03:43:22;;;;;;;15.90;9.27;;;19.30;99.90;;;;;;5002430;28;20421;-78
2023/07/19 03:45:50;;;;;;;13.02;10.27;;;19.30;99.90;;;;;;5006599;28;20046;-76
2023/07/19 03:48:17;;;;;;;13.57;9.23;;;19.40;99.90;;;;;;5004637;28;20043;-77
2023/07/19 03:50:45;;;;;;;11.93;10.07;;;19.50;99.90;;;;;;5000760;28;20527;-79
2023/07/19 03:53:13;;;;;;;13.15;8.90;;;19.60;99.90;;;;;;5002607;28;20382;-76
2023/07/19 03:55:40;;;;;;;11.00;9.43;;;19.70;99.90;;;;;;5000537;28;20046;-79
2023/07/19 03:58:10;;;;;;;14.18;9.07;;;19.80;99.90;;;;;;5001802;28;20046;-77
2023/07/19 04:00:37;;;;;;;9.70;8.52;;;19.90;99.90;;;;;;5000518;28;20524;-77
2023/07/19 04:03:05;;;;;;;9.77;7.95;;;20.00;99.90;;;;;;5001211;28;20046;-77
2023/07/19 04:05:34;;;;;;;12.20;8.45;;;20.30;99.90;;;;;;5001636;28;20085;-77
2023/07/19 04:08:01;;;;;;;14.52;8.57;;;20.70;99.90;;;;;;5001428;28;20141;-79
2023/07/19 04:10:31;;;;;;;10.05;7.85;;;21.10;99.90;;;;;;5001838;28;20486;-76
2023/07/19 04:12:58;;;;;;;12.95;8.45;;;21.40;99.90;;;;;;5002376;28;20038;-78
2023/07/19 04:15:27;;;;;;;10.98;7.80;;;21.40;99.90;;;;;;5008256;28;20101;-76
2023/07/19 04:17:55;;;;;;;12.57;7.40;;;21.90;99.90;;;;;;5003654;28;20116;-75
2023/07/19 04:20:23;;;;;;;11.90;6.93;;;22.40;99.90;;;;;;5000748;28;20134;-76
2023/07/19 04:22:51;;;;;;;11.48;6.90;;;23.00;99.90;;;;;;5001204;28;20074;-76
2023/07/19 04:25:18;;;;;;;9.55;6.38;;;23.40;99.90;;;;;;5015053;28;20363;-76
2023/07/19 04:27:46;;;;;;;11.88;6.80;;;23.90;99.90;;;;;;5004042;28;20042;-77
2023/07/19 04:30:14;;;;;;;8.82;6.13;;;24.50;99.90;;;;;;5002095;28;20050;-74
2023/07/19 04:32:43;;;;;;;11.90;6.47;;;24.80;99.90;;;;;;5012271;28;20573;-76
2023/07/19 04:35:11;;;;;;;10.43;6.65;;;25.00;99.90;;;;;;5008623;28;20077;-77
2023/07/19 04:37:39;;;;;;;12.73;6.60;;;25.40;99.90;;;;;;5000562;28;20054;-77
2023/07/19 04:40:09;;;;;;;8.57;6.35;;;26.10;99.90;;;;;;5002696;28;20046;-76
2023/07/19 04:42:39;;;;;;;11.07;6.47;;;26.40;99.90;;;;;;5001332;28;20076;-77
2023/07/19 04:45:07;;;;;;;8.05;5.75;;;27.00;99.90;;;;;;5006837;28;20053;-77
2023/07/19 04:47:37;;;;;;;10.55;5.70;;;27.40;99.90;;;;;;5034376;28;20711;-75
2023/07/19 04:50:07;;;;;;;13.77;5.22;;;27.30;99.90;;;;;;5002449;28;20073;-74
2023/07/19 04:52:35;;;;;;;8.32;5.10;;;27.20;99.90;;;;;;5011761;28;20116;-80
2023/07/19 04:55:09;;;;;;;9.80;5.07;;;27.30;99.90;;;;;;5012688;28;20462;-78
2023/07/19 04:57:37;;;;;;;9.38;6.05;;;27.60;99.90;;;;;;5007130;28;20056;-77
2023/07/19 05:00:11;;;;;;;8.77;5.22;;;28.00;99.90;;;;;;5004401;28;20560;-78
2023/07/19 05:02:39;;;;;;;11.40;6.03;;;27.80;99.90;;;;;;5000943;28;20058;-75
2023/07/19 05:05:10;;;;;;;6.88;5.70;;;27.70;99.90;;;;;;5006305;28;20058;-77
2023/07/19 05:07:38;;;;;;;10.95;6.68;;;27.00;99.90;;;;;;5002850;28;20378;-77
2023/07/19 05:10:10;;;;;;;11.95;6.22;;;26.80;99.90;;;;;;4999548;28;20050;-77
2023/07/19 05:12:38;;;;;;;9.98;6.03;;;27.80;99.90;;;;;;5002856;28;20490;-75
2023/07/19 05:15:08;;;;;;;11.63;6.13;;;28.90;99.90;;;;;;5026218;28;20322;-78
2023/07/19 05:17:36;;;;;;;9.63;6.35;;;29.70;99.90;;;;;;4990072;28;20406;-76
2023/07/19 05:20:05;;;;;;;7.57;5.53;;;30.40;99.90;;;;;;5011733;28;20038;-79
2023/07/19 05:22:35;;;;;;;11.60;5.40;;;30.40;99.90;;;;;;5010080;28;20556;-76
2023/07/19 05:25:03;;;;;;;13.68;6.68;;;31.20;99.90;;;;;;5001791;28;20076;-77
2023/07/19 05:27:31;;;;;;;9.10;4.95;;;31.70;99.90;;;;;;5024730;28;20038;-76
2023/07/19 05:29:58;;;;;;;10.05;5.20;;;31.10;99.90;;;;;;5000685;28;20459;-78
2023/07/19 05:32:26;;;;;;;10.93;5.25;;;31.10;99.90;;;;;;5000223;28;20082;-81
2023/07/19 05:34:55;;;;;;;8.55;5.45;;;31.70;99.90;;;;;;5003748;28;20045;-76
2023/07/19 05:37:22;;;;;;;11.20;4.70;;;32.10;99.90;;;;;;5009427;28;20053;-75
2023/07/19 05:39:52;;;;;;;8.88;5.68;;;32.70;99.90;;;;;;5005417;28;20054;-77
2023/07/19 05:42:19;;;;;;;11.23;5.90;;;33.20;99.90;;;;;;5001231;28;20141;-76
2023/07/19 05:44:47;;;;;;;20.38;8.50;;;33.40;99.90;;;;;;5001211;28;20122;-76
2023/07/19 05:47:14;;;;;;;9.48;5.95;;;33.70;99.90;;;;;;4998983;28;20037;-75
2023/07/19 05:49:42;;;;;;;12.77;6.45;;;33.50;99.90;;;;;;5000110;28;20060;-77
2023/07/19 05:52:10;;;;;;;10.65;5.47;;;33.70;99.90;;;;;;4999842;28;20042;-76
2023/07/19 05:54:38;;;;;;;8.48;5.40;;;34.00;99.90;;;;;;4999232;28;20125;-75
2023/07/19 05:57:07;;;;;;;12.75;5.57;;;33.20;99.90;;;;;;5000838;28;20038;-77
2023/07/19 05:59:34;;;;;;;8.35;5.47;;;33.30;99.90;;;;;;4999270;28;20585;-76
2023/07/19 06:02:02;;;;;;;17.58;6.45;;;33.10;99.90;;;;;;5000899;28;20042;-77
2023/07/19 06:04:29;;;;;;;7.72;5.20;;;33.10;99.90;;;;;;5000545;28;20042;-74
2023/07/19 06:06:56;;;;;;;8.02;5.88;;;33.10;99.90;;;;;;4999988;28;20041;-76
2023/07/19 06:09:24;;;;;;;9.82;5.32;;;33.20;99.90;;;;;;4997335;28;20070;-78
2023/07/19 06:11:56;;;;;;;8.20;4.93;;;32.90;99.90;;;;;;4999931;28;20046;-78
2023/07/19 06:14:25;;;;;;;9.82;6.03;;;32.90;99.90;;;;;;4998773;28;20522;-79
2023/07/19 06:16:53;;;;;;;22.23;7.15;;;32.90;99.90;;;;;;5007142;28;20049;-76
2023/07/19 06:19:20;;;;;;;10.77;7.25;;;32.60;99.90;;;;;;4999668;28;20655;-76
2023/07/19 06:21:48;;;;;;;13.35;6.43;;;32.40;99.90;;;;;;4999555;28;20429;-76
2023/07/19 06:24:15;;;;;;;11.73;7.50;;;32.00;99.90;;;;;;5000507;28;20044;-75
2023/07/19 06:26:42;;;;;;;8.25;4.75;;;31.70;99.90;;;;;;5000687;28;20045;-76
2023/07/19 06:29:10;;;;;;;17.00;6.72;;;31.00;99.90;;;;;;4999522;28;20049;-77
2023/07/19 06:31:39;;;;;;;8.30;5.50;;;30.70;99.90;;;;;;4998428;28;20052;-75
2023/07/19 06:34:06;;;;;;;6.60;4.97;;;30.40;99.90;;;;;;5022987;28;20095;-77
2023/07/19 06:36:34;;;;;;;12.40;5.10;;;30.40;99.90;;;;;;5003656;28;20128;-76
2023/07/19 06:39:02;;;;;;;14.15;5.10;;;30.30;99.90;;;;;;5004619;28;20482;-76
2023/07/19 06:41:29;;;;;;;7.78;4.93;;;30.20;99.90;;;;;;5004130;28;20065;-78
2023/07/19 06:43:57;;;;;;;19.92;5.53;;;30.00;99.90;;;;;;5004375;28;20050;-77
2023/07/19 06:46:25;;;;;;;7.25;5.18;;;29.80;99.90;;;;;;5002100;28;20040;-76
2023/07/19 06:48:54;;;;;;;10.65;7.50;;;29.70;99.90;;;;;;5005460;28;20046;-82
2023/07/19 06:51:21;;;;;;;12.32;6.07;;;29.80;99.90;;;;;;5004386;28;20038;-77
2023/07/19 06:53:49;;;;;;;7.53;5.90;;;29.90;99.90;;;;;;5005320;28;20052;-75
2023/07/19 06:56:16;;;;;;;10.70;5.25;;;29.90;99.90;;;;;;5003955;28;20044;-79
2023/07/19 06:58:44;;;;;;;8.60;5.38;;;30.00;99.90;;;;;;5005326;28;20055;-79
2023/07/19 07:01:11;;;;;;;10.30;5.90;;;30.10;99.90;;;;;;5004334;28;20041;-77
2023/07/19 07:03:52;;;;;;;100.30;81.53;;;30.10;99.90;;;;;;5005862;28;20034;-80
2023/07/19 07:06:20;;;;;;;116.15;95.05;;;30.20;99.90;;;;;;5002353;28;20053;-77
2023/07/19 07:08:48;;;;;;;87.20;68.18;;;30.00;99.90;;;;;;5000749;28;20058;-76
2023/07/19 07:11:22;;;;;;;43.33;33.83;;;29.80;99.90;;;;;;5005985;28;20044;-81
2023/07/19 07:13:50;;;;;;;58.17;48.22;;;29.90;99.90;;;;;;5002218;28;20068;-76
2023/07/19 07:16:17;;;;;;;14.68;11.65;;;29.50;99.90;;;;;;5003664;28;20043;-79
2023/07/19 07:18:45;;;;;;;20.25;14.05;;;29.80;99.90;;;;;;5003240;28;20041;-77
2023/07/19 07:21:16;;;;;;;14.93;6.88;;;30.00;99.90;;;;;;5006575;28;20037;-83
2023/07/19 07:23:46;;;;;;;10.20;6.35;;;30.20;99.90;;;;;;5002446;28;20153;-85
2023/07/19 07:26:14;;;;;;;10.10;5.72;;;30.30;99.90;;;;;;5007509;28;20038;-83
2023/07/19 07:28:42;;;;;;;9.68;5.63;;;30.40;99.90;;;;;;5015072;28;20186;-85
2023/07/19 07:31:11;;;;;;;9.57;5.50;;;30.50;99.90;;;;;;5024708;28;20077;-83
2023/07/19 07:33:40;;;;;;;16.08;5.70;;;30.50;99.90;;;;;;5023429;28;20065;-84
2023/07/19 07:36:08;;;;;;;12.43;6.10;;;30.20;99.90;;;;;;5024897;28;20066;-84
2023/07/19 07:38:39;;;;;;;8.77;5.38;;;30.00;99.90;;;;;;5011514;28;20065;-85
2023/07/19 07:41:11;;;;;;;10.95;5.78;;;30.00;99.90;;;;;;5009882;28;20517;-85
2023/07/19 07:43:38;;;;;;;10.48;5.78;;;29.70;99.90;;;;;;5006633;28;20038;-83
2023/07/19 07:46:09;;;;;;;11.00;6.75;;;29.40;99.90;;;;;;5007409;28;20045;-84
2023/07/19 07:48:38;;;;;;;11.77;5.05;;;29.40;99.90;;;;;;5009880;28;20057;-83
2023/07/19 07:51:06;;;;;;;13.20;5.93;;;29.50;99.90;;;;;;4999926;28;20047;-85
2023/07/19 07:53:34;;;;;;;12.98;6.32;;;29.60;99.90;;;;;;5012172;28;20038;-83
2023/07/19 07:56:03;;;;;;;8.15;6.28;;;30.10;99.90;;;;;;5013664;28;20046;-83
2023/07/19 07:58:30;;;;;;;10.20;5.72;;;30.10;99.90;;;;;;5008721;28;20049;-83
2023/07/19 08:01:00;;;;;;;10.20;5.47;;;30.00;99.90;;;;;;5012133;28;20038;-83
2023/07/19 08:03:27;;;;;;;9.68;6.20;;;29.90;99.90;;;;;;5025615;28;20076;-84
2023/07/19 08:06:04;;;;;;;10.80;6.38;;;30.00;99.90;;;;;;5023941;28;20072;-85
2023/07/19 08:08:34;;;;;;;8.73;6.63;;;29.80;99.90;;;;;;5015913;28;20050;-83
2023/07/19 08:11:09;;;;;;;12.13;6.93;;;30.00;99.90;;;;;;5005147;28;20053;-83
2023/07/19 08:13:37;;;;;;;12.48;7.45;;;30.30;99.90;;;;;;5009070;28;20031;-83
2023/07/19 08:16:06;;;;;;;13.40;7.13;;;30.40;99.90;;;;;;5020031;28;20030;-83
2023/07/19 08:18:43;;;;;;;12.25;7.07;;;30.50;99.90;;;;;;5024301;28;20034;-84
2023/07/19 08:21:14;;;;;;;11.52;6.50;;;30.40;99.90;;;;;;5023313;28;20038;-83
2023/07/19 08:23:41;;;;;;;11.30;6.78;;;30.40;99.90;;;;;;5007371;28;20075;-82
2023/07/19 08:26:10;;;;;;;10.88;6.95;;;30.30;99.90;;;;;;5004365;28;20038;-81
2023/07/19 08:28:38;;;;;;;14.05;6.93;;;30.40;99.90;;;;;;5004709;28;20118;-84
2023/07/19 08:31:05;;;;;;;12.85;6.00;;;30.60;99.90;;;;;;5003439;28;20042;-81
2023/07/19 08:33:33;;;;;;;13.02;6.55;;;30.60;99.90;;;;;;5000836;28;20046;-81
2023/07/19 08:36:00;;;;;;;12.18;6.50;;;30.60;99.90;;;;;;5004948;28;20583;-81
2023/07/19 08:38:27;;;;;;;9.90;6.15;;;30.80;99.90;;;;;;5000488;28;20222;-82
2023/07/19 08:41:02;;;;;;;12.25;5.95;;;30.80;99.90;;;;;;5005004;28;20050;-80
2023/07/19 08:43:33;;;;;;;10.03;6.10;;;30.60;99.90;;;;;;5003775;28;20046;-82
2023/07/19 08:46:00;;;;;;;10.80;6.88;;;30.70;99.90;;;;;;5004845;28;20306;-80
2023/07/19 08:48:29;;;;;;;9.48;6.60;;;31.00;99.90;;;;;;5003560;28;20038;-82
2023/07/19 08:50:58;;;;;;;14.40;7.00;;;31.20;99.90;;;;;;4999486;28;20037;-82
2023/07/19 08:53:27;;;;;;;10.82;6.00;;;31.30;99.90;;;;;;5004749;28;20047;-83
2023/07/19 08:55:56;;;;;;;12.45;6.45;;;31.20;99.90;;;;;;5009349;28;20096;-82
2023/07/19 08:58:24;;;;;;;9.18;5.90;;;31.00;99.90;;;;;;5011929;28;20060;-82
2023/07/19 09:00:52;;;;;;;10.18;5.80;;;31.10;99.90;;;;;;5005095;28;20054;-83
2023/07/19 09:03:33;;;;;;;12.13;6.13;;;31.20;99.90;;;;;;5005603;28;20042;-83
2023/07/19 09:06:02;;;;;;;13.18;6.13;;;31.00;99.90;;;;;;5006744;28;20057;-82
2023/07/19 09:08:44;;;;;;;14.10;6.05;;;31.00;99.90;;;;;;5005510;28;20038;-86
2023/07/19 09:11:22;;;;;;;11.43;6.45;;;31.00;99.90;;;;;;5014937;28;20046;-84
2023/07/19 09:13:53;;;;;;;10.07;6.00;;;31.10;99.90;;;;;;5034068;28;20046;-83
2023/07/19 09:16:29;;;;;;;10.52;6.18;;;31.30;99.90;;;;;;5010666;28;20725;-82
2023/07/19 09:18:58;;;;;;;11.45;7.97;;;31.50;99.90;;;;;;5006402;28;20407;-82
2023/07/19 09:21:33;;;;;;;13.68;6.15;;;31.60;99.90;;;;;;5005308;28;20493;-80
2023/07/19 09:24:06;;;;;;;13.30;6.78;;;31.70;99.90;;;;;;5020192;28;20031;-80
2023/07/19 09:26:50;;;;;;;11.50;6.68;;;31.80;99.90;;;;;;5032042;28;20026;-84
2023/07/19 09:29:19;;;;;;;11.48;5.82;;;31.80;99.90;;;;;;5022188;28;20150;-81
2023/07/19 09:31:59;;;;;;;15.60;5.70;;;31.80;99.90;;;;;;5021945;28;20050;-85
2023/07/19 09:34:30;;;;;;;10.02;6.15;;;31.90;99.90;;;;;;5016197;28;20069;-81
2023/07/19 09:36:58;;;;;;;13.18;6.20;;;32.00;99.90;;;;;;5013208;28;20046;-84
2023/07/19 09:39:26;;;;;;;8.82;5.65;;;31.90;99.90;;;;;;5002798;28;20069;-80
2023/07/19 09:41:58;;;;;;;14.73;6.32;;;32.00;99.90;;;;;;5002568;28;20113;-86
2023/07/19 09:44:26;;;;;;;9.18;5.35;;;32.30;99.90;;;;;;5006037;28;20033;-84
2023/07/19 09:46:55;;;;;;;10.80;5.18;;;32.20;99.90;;;;;;5010841;28;20163;-84
2023/07/19 09:49:24;;;;;;;8.50;5.50;;;32.20;99.90;;;;;;5005804;28;20038;-83
2023/07/19 09:51:56;;;;;;;11.18;5.97;;;31.80;99.90;;;;;;5006195;28;20050;-84
2023/07/19 09:54:25;;;;;;;16.30;7.78;;;32.00;99.90;;;;;;5011822;28;20054;-85
2023/07/19 09:56:55;;;;;;;13.20;8.10;;;32.00;99.90;;;;;;5020267;28;20049;-86
2023/07/19 09:59:26;;;;;;;12.23;6.25;;;32.10;99.90;;;;;;5011488;28;20046;-84
2023/07/19 10:01:56;;;;;;;12.25;6.28;;;32.40;99.90;;;;;;5012136;28;20134;-84
2023/07/19 10:04:42;;;;;;;10.35;5.60;;;32.60;99.90;;;;;;5016228;28;20215;-86
2023/07/19 10:07:17;;;;;;;11.13;5.97;;;32.90;99.90;;;;;;5010813;28;20038;-83
2023/07/19 10:09:50;;;;;;;11.60;5.90;;;32.90;99.90;;;;;;5011415;28;20043;-85
2023/07/19 10:15:10;;;;;;;13.60;8.52;;;32.80;99.90;;;;;;5011314;28;20042;-86
2023/07/19 10:17:56;;;;;;;10.20;6.55;;;33.00;99.90;;;;;;5011188;28;20034;-83
2023/07/19 10:20:27;;;;;;;9.93;6.78;;;33.20;99.90;;;;;;5014471;28;20069;-84
2023/07/19 10:22:57;;;;;;;14.60;7.00;;;33.40;99.90;;;;;;5010172;28;20054;-83
2023/07/19 10:25:29;;;;;;;12.27;7.35;;;33.50;99.90;;;;;;5014108;28;20118;-82
2023/07/19 10:28:02;;;;;;;11.00;6.43;;;33.50;99.90;;;;;;5009670;28;20077;-82
2023/07/19 10:30:53;;;;;;;10.55;5.72;;;33.60;99.90;;;;;;5012243;28;20065;-83
2023/07/19 10:33:31;;;;;;;12.38;6.10;;;33.60;99.90;;;;;;5021088;28;20026;-84
2023/07/19 10:36:05;;;;;;;10.35;5.80;;;33.60;99.90;;;;;;5016056;28;20052;-84
2023/07/19 10:38:32;;;;;;;11.80;5.78;;;33.80;99.90;;;;;;5018338;28;20117;-81
2023/07/19 10:41:02;;;;;;;10.30;5.93;;;33.80;99.90;;;;;;5018743;28;20085;-83
2023/07/19 10:43:32;;;;;;;12.52;7.07;;;33.80;99.90;;;;;;5014389;28;20038;-84
2023/07/19 10:46:00;;;;;;;12.15;6.30;;;33.60;99.90;;;;;;5010349;28;20089;-84
2023/07/19 10:48:31;;;;;;;11.15;6.05;;;33.50;99.90;;;;;;5010360;28;20049;-84
2023/07/19 10:50:59;;;;;;;11.48;6.10;;;33.50;99.90;;;;;;5006665;28;20141;-84
2023/07/19 10:53:28;;;;;;;10.93;6.40;;;33.30;99.90;;;;;;5003824;28;20042;-84
2023/07/19 10:55:57;;;;;;;8.75;5.63;;;33.50;99.90;;;;;;5005168;28;20038;-83
2023/07/19 10:58:32;;;;;;;12.27;5.72;;;33.80;99.90;;;;;;5004475;28;20046;-83
2023/07/19 11:00:59;;;;;;;11.80;6.70;;;33.90;99.90;;;;;;5005624;28;20508;-79
2023/07/19 11:03:29;;;;;;;7.63;4.53;;;33.90;99.90;;;;;;5003153;28;20041;-78
2023/07/19 11:05:59;;;;;;;14.25;8.02;;;33.90;99.90;;;;;;5006826;28;20050;-78
2023/07/19 11:08:30;;;;;;;15.15;10.18;;;33.80;99.90;;;;;;5007020;28;20056;-76
2023/07/19 11:10:58;;;;;;;14.20;8.27;;;33.90;99.90;;;;;;4993839;28;20570;-79
2023/07/19 11:13:27;;;;;;;50.50;44.95;;;33.90;99.90;;;;;;5001955;28;20313;-78
2023/07/19 11:15:57;;;;;;;11.32;5.57;;;33.90;99.90;;;;;;5001166;28;20050;-76
2023/07/19 11:18:26;;;;;;;10.15;5.47;;;33.90;99.90;;;;;;5003747;28;20043;-81
2023/07/19 11:20:57;;;;;;;12.90;6.85;;;33.80;99.90;;;;;;5006915;28;20072;-77
2023/07/19 11:23:25;;;;;;;15.35;10.57;;;33.80;99.90;;;;;;4993657;28;20042;-76
2023/07/19 11:26:02;;;;;;;11.63;6.75;;;33.90;99.90;;;;;;5009568;28;20034;-78
2023/07/19 11:28:37;;;;;;;11.95;4.82;;;33.90;99.90;;;;;;5008476;28;20525;-78
2023/07/19 11:31:05;;;;;;;8.07;5.22;;;33.90;99.90;;;;;;5006917;28;20510;-79
2023/07/19 11:33:34;;;;;;;13.20;7.05;;;33.90;99.90;;;;;;5006894;28;20058;-78
2023/07/19 11:36:07;;;;;;;9.30;5.25;;;34.00;99.90;;;;;;5006861;28;20047;-78
2023/07/19 11:38:36;;;;;;;12.10;6.70;;;34.10;99.90;;;;;;5008082;28;20041;-76
2023/07/19 11:41:04;;;;;;;13.10;4.45;;;34.20;99.90;;;;;;5004183;28;20042;-77
2023/07/19 11:43:31;;;;;;;9.73;5.70;;;34.20;99.90;;;;;;5002012;28;20038;-77
2023/07/19 11:45:59;;;;;;;10.73;4.70;;;34.30;99.90;;;;;;5003360;28;20506;-78
2023/07/19 11:48:27;;;;;;;9.73;5.30;;;34.40;99.90;;;;;;5002256;28;20120;-74
2023/07/19 11:50:54;;;;;;;12.13;4.60;;;34.40;99.90;;;;;;5002835;28;20092;-76
2023/07/19 11:53:28;;;;;;;8.45;4.63;;;34.40;99.90;;;;;;5001065;28;20514;-79
2023/07/19 11:55:56;;;;;;;13.80;4.93;;;34.40;99.90;;;;;;5001949;28;20220;-76
2023/07/19 11:58:23;;;;;;;9.98;4.78;;;34.40;99.90;;;;;;5002319;28;20043;-76
2023/07/19 12:00:51;;;;;;;13.55;4.97;;;34.40;99.90;;;;;;5001942;28;20042;-76
2023/07/19 12:03:18;;;;;;;11.23;4.80;;;34.20;99.90;;;;;;5002368;28;20132;-76
2023/07/19 12:05:45;;;;;;;9.50;4.88;;;34.20;99.90;;;;;;5002536;28;20401;-77
2023/07/19 12:08:15;;;;;;;10.98;4.85;;;34.30;99.90;;;;;;5002263;28;20053;-75
2023/07/19 12:10:43;;;;;;;6.45;4.22;;;34.30;99.90;;;;;;5001151;28;20949;-75
2023/07/19 12:13:10;;;;;;;7.50;4.30;;;34.30;99.90;;;;;;5002035;28;20042;-76
2023/07/19 12:15:38;;;;;;;10.98;4.75;;;34.40;99.90;;;;;;5001937;28;20056;-78
2023/07/19 12:18:05;;;;;;;13.68;5.50;;;34.40;99.90;;;;;;5002083;28;20076;-76
2023/07/19 12:20:33;;;;;;;17.45;5.75;;;34.50;99.90;;;;;;5000609;28;20042;-76
2023/07/19 12:23:00;;;;;;;12.10;4.70;;;34.50;99.90;;;;;;5000961;28;20453;-75
2023/07/19 12:25:28;;;;;;;11.75;7.10;;;34.40;99.90;;;;;;5002588;28;20035;-76
2023/07/19 12:27:58;;;;;;;12.60;4.93;;;34.40;99.90;;;;;;5002589;28;20038;-76
2023/07/19 12:30:25;;;;;;;11.98;5.93;;;34.50;99.90;;;;;;5001172;28;20068;-77
2023/07/19 12:32:52;;;;;;;15.40;8.25;;;34.40;99.90;;;;;;5001236;28;20097;-76
2023/07/19 12:35:20;;;;;;;8.18;5.30;;;34.40;99.90;;;;;;5002461;28;20580;-76
2023/07/19 12:37:47;;;;;;;10.77;4.38;;;34.50;99.90;;;;;;5003768;28;20047;-78
2023/07/19 12:40:15;;;;;;;11.80;6.97;;;34.50;99.90;;;;;;5001558;28;20042;-77
2023/07/19 12:42:42;;;;;;;11.85;5.75;;;34.60;99.90;;;;;;5001722;28;20073;-77
2023/07/19 12:45:13;;;;;;;8.75;4.53;;;34.60;99.90;;;;;;5000513;28;20034;-76
2023/07/19 12:47:40;;;;;;;8.02;4.15;;;34.60;99.90;;;;;;4998383;28;20042;-76
2023/07/19 12:50:08;;;;;;;9.20;5.38;;;34.60;99.90;;;;;;4998133;28;20125;-75